sensor_id;sensor_type;location;lat;lon;timestamp;P1;durP1;ratioP1;P2;durP2;ratioP2
2712;SDS011;1366;47.988;7.856;2023-06-26T00:00:54;902.63;;;861.40;;
2712;SDS011;1366;47.988;7.856;2023-06-26T00:03:20;924.87;;;882.70;;
2712;SDS011;1366;47.988;7.856;2023-06-26T00:05:48;956.47;;;911.70;;
2712;SDS011;1366;47.988;7.856;2023-06-26T00:08:15;953.57;;;909.77;;
2712;SDS011;1366;47.988;7.856;2023-06-26T00:10:41;979.97;;;932.53;;
2712;SDS011;1366;47.988;7.856;2023-06-26T00:13:07;788.22;;;751.85;;
2712;SDS011;1366;47.988;7.856;2023-06-26T00:15:36;964.83;;;919.53;;
2712;SDS011;1366;47.988;7.856;2023-06-26T00:18:02;965.67;;;919.77;;
2712;SDS011;1366;47.988;7.856;2023-06-26T00:20:28;963.80;;;918.33;;
2712;SDS011;1366;47.988;7.856;2023-06-26T00:22:58;902.40;;;860.20;;
2712;SDS011;1366;47.988;7.856;2023-06-26T00:25:24;950.93;;;906.73;;
2712;SDS011;1366;47.988;7.856;2023-06-26T00:30:54;959.30;;;913.07;;
2712;SDS011;1366;47.988;7.856;2023-06-26T00:33:20;968.67;;;922.67;;
2712;SDS011;1366;47.988;7.856;2023-06-26T00:35:47;950.10;;;906.43;;
2712;SDS011;1366;47.988;7.856;2023-06-26T00:38:13;906.57;;;865.67;;
2712;SDS011;1366;47.988;7.856;2023-06-26T00:40:39;926.63;;;884.43;;
2712;SDS011;1366;47.988;7.856;2023-06-26T00:43:05;858.70;;;820.50;;
2712;SDS011;1366;47.988;7.856;2023-06-26T00:48:34;936.73;;;892.73;;
2712;SDS011;1366;47.988;7.856;2023-06-26T00:51:00;942.23;;;897.97;;
2712;SDS011;1366;47.988;7.856;2023-06-26T00:53:27;768.10;;;734.30;;
2712;SDS011;1366;47.988;7.856;2023-06-26T00:55:53;961.30;;;915.20;;
2712;SDS011;1366;47.988;7.856;2023-06-26T00:58:21;938.27;;;894.70;;
2712;SDS011;1366;47.988;7.856;2023-06-26T01:00:50;952.70;;;906.77;;
2712;SDS011;1366;47.988;7.856;2023-06-26T01:06:20;959.23;;;912.37;;
2712;SDS011;1366;47.988;7.856;2023-06-26T01:08:47;956.37;;;909.17;;
2712;SDS011;1366;47.988;7.856;2023-06-26T01:11:13;672.58;;;641.00;;
2712;SDS011;1366;47.988;7.856;2023-06-26T01:13:41;859.47;;;820.37;;
2712;SDS011;1366;47.988;7.856;2023-06-26T01:16:09;864.83;;;825.97;;
2712;SDS011;1366;47.988;7.856;2023-06-26T01:18:36;961.87;;;916.57;;
2712;SDS011;1366;47.988;7.856;2023-06-26T01:21:06;969.30;;;922.03;;
2712;SDS011;1366;47.988;7.856;2023-06-26T01:28:43;950.67;;;904.57;;
2712;SDS011;1366;47.988;7.856;2023-06-26T01:31:10;948.73;;;903.97;;
2712;SDS011;1366;47.988;7.856;2023-06-26T01:33:37;957.20;;;911.45;;
2712;SDS011;1366;47.988;7.856;2023-06-26T01:36:03;907.80;;;866.60;;
2712;SDS011;1366;47.988;7.856;2023-06-26T01:38:29;927.37;;;884.93;;
2712;SDS011;1366;47.988;7.856;2023-06-26T01:40:55;856.03;;;817.80;;
2712;SDS011;1366;47.988;7.856;2023-06-26T01:46:05;889.40;;;849.53;;
2712;SDS011;1366;47.988;7.856;2023-06-26T01:48:34;816.30;;;780.43;;
2712;SDS011;1366;47.988;7.856;2023-06-26T01:51:00;906.73;;;865.57;;
2712;SDS011;1366;47.988;7.856;2023-06-26T01:59:23;822.27;;;785.67;;
2712;SDS011;1366;47.988;7.856;2023-06-26T02:01:50;862.23;;;823.93;;
2712;SDS011;1366;47.988;7.856;2023-06-26T02:04:17;916.33;;;874.63;;
2712;SDS011;1366;47.988;7.856;2023-06-26T02:06:43;939.73;;;894.10;;
2712;SDS011;1366;47.988;7.856;2023-06-26T02:09:09;932.03;;;886.77;;
2712;SDS011;1366;47.988;7.856;2023-06-26T02:11:35;927.17;;;883.47;;
2712;SDS011;1366;47.988;7.856;2023-06-26T02:14:02;884.23;;;844.77;;
2712;SDS011;1366;47.988;7.856;2023-06-26T02:25:38;924.83;;;880.53;;
2712;SDS011;1366;47.988;7.856;2023-06-26T02:28:04;917.07;;;873.97;;
2712;SDS011;1366;47.988;7.856;2023-06-26T02:33:34;939.27;;;892.30;;
2712;SDS011;1366;47.988;7.856;2023-06-26T02:36:00;937.60;;;888.80;;
2712;SDS011;1366;47.988;7.856;2023-06-26T02:38:26;930.43;;;881.73;;
2712;SDS011;1366;47.988;7.856;2023-06-26T02:40:52;927.73;;;879.03;;
2712;SDS011;1366;47.988;7.856;2023-06-26T02:43:18;935.00;;;886.90;;
2712;SDS011;1366;47.988;7.856;2023-06-26T02:45:44;934.70;;;888.97;;
2712;SDS011;1366;47.988;7.856;2023-06-26T02:54:18;935.67;;;885.87;;
2712;SDS011;1366;47.988;7.856;2023-06-26T02:56:44;935.20;;;885.10;;
2712;SDS011;1366;47.988;7.856;2023-06-26T02:59:10;914.85;;;872.22;;
2712;SDS011;1366;47.988;7.856;2023-06-26T03:01:36;946.43;;;901.73;;
2712;SDS011;1366;47.988;7.856;2023-06-26T03:04:03;953.80;;;905.33;;
2712;SDS011;1366;47.988;7.856;2023-06-26T03:06:29;924.10;;;877.90;;
2712;SDS011;1366;47.988;7.856;2023-06-26T03:08:55;896.72;;;853.40;;
2712;SDS011;1366;47.988;7.856;2023-06-26T03:11:21;965.50;;;916.97;;
2712;SDS011;1366;47.988;7.856;2023-06-26T03:13:47;956.20;;;907.13;;
2712;SDS011;1366;47.988;7.856;2023-06-26T03:16:14;938.90;;;890.77;;
2712;SDS011;1366;47.988;7.856;2023-06-26T03:18:40;926.67;;;880.37;;
2712;SDS011;1366;47.988;7.856;2023-06-26T03:21:06;931.77;;;882.97;;
2712;SDS011;1366;47.988;7.856;2023-06-26T03:23:32;935.93;;;886.07;;
2712;SDS011;1366;47.988;7.856;2023-06-26T03:25:58;928.70;;;878.83;;
2712;SDS011;1366;47.988;7.856;2023-06-26T03:28:24;939.30;;;887.63;;
2712;SDS011;1366;47.988;7.856;2023-06-26T03:36:47;976.10;;;925.53;;
2712;SDS011;1366;47.988;7.856;2023-06-26T03:39:13;953.67;;;903.40;;
2712;SDS011;1366;47.988;7.856;2023-06-26T03:41:39;946.13;;;894.57;;
2712;SDS011;1366;47.988;7.856;2023-06-26T03:44:05;940.23;;;888.17;;
2712;SDS011;1366;47.988;7.856;2023-06-26T03:46:31;987.28;;;935.22;;
2712;SDS011;1366;47.988;7.856;2023-06-26T03:48:57;946.30;;;896.33;;
2712;SDS011;1366;47.988;7.856;2023-06-26T03:51:23;935.30;;;889.53;;
2712;SDS011;1366;47.988;7.856;2023-06-26T03:53:49;945.13;;;894.87;;
2712;SDS011;1366;47.988;7.856;2023-06-26T03:56:15;935.77;;;886.57;;
2712;SDS011;1366;47.988;7.856;2023-06-26T03:58:41;927.60;;;879.47;;
2712;SDS011;1366;47.988;7.856;2023-06-26T04:01:07;929.63;;;883.30;;
2712;SDS011;1366;47.988;7.856;2023-06-26T04:03:33;944.00;;;893.50;;
2712;SDS011;1366;47.988;7.856;2023-06-26T04:05:59;945.03;;;894.93;;
2712;SDS011;1366;47.988;7.856;2023-06-26T04:08:25;943.87;;;892.83;;
2712;SDS011;1366;47.988;7.856;2023-06-26T04:10:51;938.87;;;890.27;;
2712;SDS011;1366;47.988;7.856;2023-06-26T04:13:18;933.67;;;882.40;;
2712;SDS011;1366;47.988;7.856;2023-06-26T04:15:44;937.40;;;885.80;;
2712;SDS011;1366;47.988;7.856;2023-06-26T04:18:10;942.33;;;890.03;;
2712;SDS011;1366;47.988;7.856;2023-06-26T04:20:41;857.72;;;815.63;;
2712;SDS011;1366;47.988;7.856;2023-06-26T04:23:26;968.80;;;916.27;;
2712;SDS011;1366;47.988;7.856;2023-06-26T04:25:52;950.53;;;897.93;;
2712;SDS011;1366;47.988;7.856;2023-06-26T04:28:18;952.00;;;898.73;;
2712;SDS011;1366;47.988;7.856;2023-06-26T04:30:44;938.73;;;887.77;;
2712;SDS011;1366;47.988;7.856;2023-06-26T04:33:10;936.90;;;886.97;;
2712;SDS011;1366;47.988;7.856;2023-06-26T04:35:37;953.70;;;900.90;;
2712;SDS011;1366;47.988;7.856;2023-06-26T04:38:03;932.37;;;884.77;;
2712;SDS011;1366;47.988;7.856;2023-06-26T04:40:30;953.97;;;900.57;;
2712;SDS011;1366;47.988;7.856;2023-06-26T04:42:56;937.40;;;885.67;;
2712;SDS011;1366;47.988;7.856;2023-06-26T04:45:22;944.17;;;895.00;;
2712;SDS011;1366;47.988;7.856;2023-06-26T04:47:48;918.17;;;873.83;;
2712;SDS011;1366;47.988;7.856;2023-06-26T04:50:14;943.40;;;891.53;;
2712;SDS011;1366;47.988;7.856;2023-06-26T04:52:43;939.70;;;888.03;;
2712;SDS011;1366;47.988;7.856;2023-06-26T04:55:09;937.77;;;886.23;;
2712;SDS011;1366;47.988;7.856;2023-06-26T04:57:35;1005.88;;;953.78;;
2712;SDS011;1366;47.988;7.856;2023-06-26T05:00:02;956.93;;;906.67;;
2712;SDS011;1366;47.988;7.856;2023-06-26T05:02:31;958.37;;;906.17;;
2712;SDS011;1366;47.988;7.856;2023-06-26T05:04:57;954.07;;;900.97;;
2712;SDS011;1366;47.988;7.856;2023-06-26T05:07:23;950.63;;;897.33;;
2712;SDS011;1366;47.988;7.856;2023-06-26T05:09:49;960.43;;;906.33;;
2712;SDS011;1366;47.988;7.856;2023-06-26T05:12:15;967.63;;;913.97;;
2712;SDS011;1366;47.988;7.856;2023-06-26T05:14:41;978.70;;;925.77;;
2712;SDS011;1366;47.988;7.856;2023-06-26T05:17:07;975.47;;;921.33;;
2712;SDS011;1366;47.988;7.856;2023-06-26T05:19:33;984.20;;;931.50;;
2712;SDS011;1366;47.988;7.856;2023-06-26T05:21:59;1047.85;;;997.00;;
2712;SDS011;1366;47.988;7.856;2023-06-26T05:24:29;1008.00;;;957.53;;
2712;SDS011;1366;47.988;7.856;2023-06-26T05:26:56;998.77;;;945.87;;
2712;SDS011;1366;47.988;7.856;2023-06-26T05:29:22;1007.10;;;953.07;;
2712;SDS011;1366;47.988;7.856;2023-06-26T05:31:48;992.40;;;940.03;;
2712;SDS011;1366;47.988;7.856;2023-06-26T05:34:15;1011.27;;;957.27;;
2712;SDS011;1366;47.988;7.856;2023-06-26T05:36:41;1009.27;;;956.50;;
2712;SDS011;1366;47.988;7.856;2023-06-26T05:39:08;1008.57;;;954.37;;
2712;SDS011;1366;47.988;7.856;2023-06-26T05:41:34;1009.17;;;954.87;;
2712;SDS011;1366;47.988;7.856;2023-06-26T05:44:00;999.80;;;949.30;;
2712;SDS011;1366;47.988;7.856;2023-06-26T05:46:27;998.63;;;948.70;;
2712;SDS011;1366;47.988;7.856;2023-06-26T05:48:53;1045.23;;;990.27;;
2712;SDS011;1366;47.988;7.856;2023-06-26T05:51:19;1034.23;;;979.53;;
2712;SDS011;1366;47.988;7.856;2023-06-26T05:53:45;1016.67;;;962.27;;
2712;SDS011;1366;47.988;7.856;2023-06-26T05:56:11;1013.97;;;960.37;;
2712;SDS011;1366;47.988;7.856;2023-06-26T05:58:38;1013.10;;;959.10;;
2712;SDS011;1366;47.988;7.856;2023-06-26T06:01:04;1013.63;;;962.63;;
2712;SDS011;1366;47.988;7.856;2023-06-26T06:03:30;1002.07;;;951.73;;
2712;SDS011;1366;47.988;7.856;2023-06-26T06:05:56;991.60;;;942.80;;
2712;SDS011;1366;47.988;7.856;2023-06-26T06:08:22;926.08;;;880.05;;
2712;SDS011;1366;47.988;7.856;2023-06-26T06:10:48;1022.63;;;971.17;;
2712;SDS011;1366;47.988;7.856;2023-06-26T06:13:14;1013.40;;;961.80;;
2712;SDS011;1366;47.988;7.856;2023-06-26T06:15:40;1034.57;;;983.17;;
2712;SDS011;1366;47.988;7.856;2023-06-26T06:18:06;1014.50;;;964.00;;
2712;SDS011;1366;47.988;7.856;2023-06-26T06:20:32;998.03;;;948.27;;
2712;SDS011;1366;47.988;7.856;2023-06-26T06:22:58;995.63;;;944.97;;
2712;SDS011;1366;47.988;7.856;2023-06-26T06:25:24;999.63;;;945.97;;
2712;SDS011;1366;47.988;7.856;2023-06-26T06:27:50;989.77;;;939.90;;
2712;SDS011;1366;47.988;7.856;2023-06-26T06:30:16;948.55;;;901.78;;
2712;SDS011;1366;47.988;7.856;2023-06-26T06:32:42;1019.20;;;968.80;;
2712;SDS011;1366;47.988;7.856;2023-06-26T06:35:08;1020.40;;;967.80;;
2712;SDS011;1366;47.988;7.856;2023-06-26T06:37:38;1009.80;;;954.87;;
2712;SDS011;1366;47.988;7.856;2023-06-26T06:40:08;1003.47;;;950.63;;
2712;SDS011;1366;47.988;7.856;2023-06-26T06:42:35;1005.47;;;953.37;;
2712;SDS011;1366;47.988;7.856;2023-06-26T06:45:04;1004.23;;;952.43;;
2712;SDS011;1366;47.988;7.856;2023-06-26T06:47:31;1012.37;;;960.10;;
2712;SDS011;1366;47.988;7.856;2023-06-26T06:49:57;1016.93;;;963.17;;
2712;SDS011;1366;47.988;7.856;2023-06-26T06:52:24;1065.47;;;999.90;;
2712;SDS011;1366;47.988;7.856;2023-06-26T06:54:56;1020.50;;;966.20;;
2712;SDS011;1366;47.988;7.856;2023-06-26T06:57:30;1015.00;;;959.27;;
2712;SDS011;1366;47.988;7.856;2023-06-26T07:00:00;1027.03;;;969.43;;
2712;SDS011;1366;47.988;7.856;2023-06-26T07:02:26;1027.03;;;970.07;;
2712;SDS011;1366;47.988;7.856;2023-06-26T07:04:52;1015.33;;;960.60;;
2712;SDS011;1366;47.988;7.856;2023-06-26T07:07:18;1030.97;;;975.77;;
2712;SDS011;1366;47.988;7.856;2023-06-26T07:09:44;1023.43;;;968.33;;
2712;SDS011;1366;47.988;7.856;2023-06-26T07:12:10;1038.43;;;982.37;;
2712;SDS011;1366;47.988;7.856;2023-06-26T07:14:36;1061.85;;;999.20;;
2712;SDS011;1366;47.988;7.856;2023-06-26T07:17:03;1035.73;;;979.17;;
2712;SDS011;1366;47.988;7.856;2023-06-26T07:19:29;1035.40;;;979.23;;
2712;SDS011;1366;47.988;7.856;2023-06-26T07:21:55;1045.57;;;987.07;;
2712;SDS011;1366;47.988;7.856;2023-06-26T07:24:21;1065.95;;;999.90;;
2712;SDS011;1366;47.988;7.856;2023-06-26T07:26:47;1055.00;;;997.90;;
2712;SDS011;1366;47.988;7.856;2023-06-26T07:29:13;1054.50;;;997.47;;
2712;SDS011;1366;47.988;7.856;2023-06-26T07:31:39;1059.93;;;998.83;;
2712;SDS011;1366;47.988;7.856;2023-06-26T07:34:05;1057.33;;;998.13;;
2712;SDS011;1366;47.988;7.856;2023-06-26T07:36:31;1056.03;;;996.53;;
2712;SDS011;1366;47.988;7.856;2023-06-26T07:38:57;1060.27;;;999.00;;
2712;SDS011;1366;47.988;7.856;2023-06-26T07:41:23;1061.93;;;998.97;;
2712;SDS011;1366;47.988;7.856;2023-06-26T07:43:49;1074.50;;;999.90;;
2712;SDS011;1366;47.988;7.856;2023-06-26T07:46:15;1072.40;;;999.90;;
2712;SDS011;1366;47.988;7.856;2023-06-26T07:48:41;1068.03;;;999.90;;
2712;SDS011;1366;47.988;7.856;2023-06-26T07:51:07;1065.90;;;999.90;;
2712;SDS011;1366;47.988;7.856;2023-06-26T07:53:33;1076.03;;;999.90;;
2712;SDS011;1366;47.988;7.856;2023-06-26T07:55:59;1072.10;;;999.90;;
2712;SDS011;1366;47.988;7.856;2023-06-26T07:58:25;1073.27;;;999.90;;
2712;SDS011;1366;47.988;7.856;2023-06-26T08:00:51;1077.87;;;999.90;;
2712;SDS011;1366;47.988;7.856;2023-06-26T08:03:17;1078.60;;;999.90;;
2712;SDS011;1366;47.988;7.856;2023-06-26T08:05:43;1071.43;;;999.90;;
2712;SDS011;1366;47.988;7.856;2023-06-26T08:08:09;1078.90;;;999.90;;
2712;SDS011;1366;47.988;7.856;2023-06-26T08:10:35;1109.43;;;999.90;;
2712;SDS011;1366;47.988;7.856;2023-06-26T08:13:02;1102.23;;;999.90;;
2712;SDS011;1366;47.988;7.856;2023-06-26T08:15:28;1096.13;;;999.90;;
2712;SDS011;1366;47.988;7.856;2023-06-26T08:17:54;1093.57;;;999.90;;
2712;SDS011;1366;47.988;7.856;2023-06-26T08:20:20;1092.47;;;999.90;;
2712;SDS011;1366;47.988;7.856;2023-06-26T08:22:47;1094.70;;;999.90;;
2712;SDS011;1366;47.988;7.856;2023-06-26T08:25:15;1097.50;;;999.90;;
2712;SDS011;1366;47.988;7.856;2023-06-26T08:27:41;1108.23;;;999.90;;
2712;SDS011;1366;47.988;7.856;2023-06-26T08:30:07;1098.10;;;999.90;;
2712;SDS011;1366;47.988;7.856;2023-06-26T08:32:34;1082.37;;;999.90;;
2712;SDS011;1366;47.988;7.856;2023-06-26T08:35:00;935.63;;;885.20;;
2712;SDS011;1366;47.988;7.856;2023-06-26T08:37:26;1109.07;;;999.90;;
2712;SDS011;1366;47.988;7.856;2023-06-26T08:39:52;1099.87;;;999.90;;
2712;SDS011;1366;47.988;7.856;2023-06-26T08:42:18;1095.47;;;999.90;;
2712;SDS011;1366;47.988;7.856;2023-06-26T08:44:44;1083.63;;;999.90;;
2712;SDS011;1366;47.988;7.856;2023-06-26T08:47:11;1068.07;;;999.90;;
2712;SDS011;1366;47.988;7.856;2023-06-26T08:49:43;1112.17;;;999.90;;
2712;SDS011;1366;47.988;7.856;2023-06-26T08:52:17;1112.57;;;999.90;;
2712;SDS011;1366;47.988;7.856;2023-06-26T08:54:45;1097.17;;;999.90;;
2712;SDS011;1366;47.988;7.856;2023-06-26T08:57:12;1089.47;;;999.90;;
2712;SDS011;1366;47.988;7.856;2023-06-26T08:59:40;1092.90;;;999.90;;
2712;SDS011;1366;47.988;7.856;2023-06-26T09:02:06;1088.97;;;999.90;;
2712;SDS011;1366;47.988;7.856;2023-06-26T09:04:32;1069.00;;;999.90;;
2712;SDS011;1366;47.988;7.856;2023-06-26T09:06:58;1097.90;;;999.90;;
2712;SDS011;1366;47.988;7.856;2023-06-26T09:09:24;1093.73;;;999.90;;
2712;SDS011;1366;47.988;7.856;2023-06-26T09:11:50;1099.13;;;999.90;;
2712;SDS011;1366;47.988;7.856;2023-06-26T09:14:16;1084.07;;;999.90;;
2712;SDS011;1366;47.988;7.856;2023-06-26T09:16:42;1103.50;;;999.90;;
2712;SDS011;1366;47.988;7.856;2023-06-26T09:19:09;1057.83;;;999.33;;
2712;SDS011;1366;47.988;7.856;2023-06-26T09:21:37;1090.97;;;999.90;;
2712;SDS011;1366;47.988;7.856;2023-06-26T09:24:03;1092.43;;;999.90;;
2712;SDS011;1366;47.988;7.856;2023-06-26T09:26:29;1101.57;;;999.90;;
2712;SDS011;1366;47.988;7.856;2023-06-26T09:28:55;1104.50;;;999.90;;
2712;SDS011;1366;47.988;7.856;2023-06-26T09:31:23;1113.20;;;999.90;;
2712;SDS011;1366;47.988;7.856;2023-06-26T09:33:49;1112.93;;;999.90;;
2712;SDS011;1366;47.988;7.856;2023-06-26T09:36:21;1116.20;;;999.90;;
2712;SDS011;1366;47.988;7.856;2023-06-26T09:38:49;1098.47;;;999.90;;
2712;SDS011;1366;47.988;7.856;2023-06-26T09:41:18;1105.33;;;999.90;;
2712;SDS011;1366;47.988;7.856;2023-06-26T09:43:45;1107.83;;;999.90;;
2712;SDS011;1366;47.988;7.856;2023-06-26T09:46:15;1103.30;;;999.90;;
2712;SDS011;1366;47.988;7.856;2023-06-26T09:48:41;1105.07;;;999.90;;
2712;SDS011;1366;47.988;7.856;2023-06-26T09:51:07;1097.03;;;999.90;;
2712;SDS011;1366;47.988;7.856;2023-06-26T09:53:34;1103.63;;;999.90;;
2712;SDS011;1366;47.988;7.856;2023-06-26T09:56:05;1099.00;;;999.90;;
2712;SDS011;1366;47.988;7.856;2023-06-26T09:58:32;1100.87;;;999.90;;
2712;SDS011;1366;47.988;7.856;2023-06-26T10:00:58;1159.97;;;999.90;;
2712;SDS011;1366;47.988;7.856;2023-06-26T10:03:24;1110.03;;;999.90;;
2712;SDS011;1366;47.988;7.856;2023-06-26T10:05:50;1105.97;;;999.90;;
2712;SDS011;1366;47.988;7.856;2023-06-26T10:08:16;1096.03;;;999.90;;
2712;SDS011;1366;47.988;7.856;2023-06-26T10:10:42;1099.40;;;999.90;;
2712;SDS011;1366;47.988;7.856;2023-06-26T10:13:17;1055.43;;;998.25;;
2712;SDS011;1366;47.988;7.856;2023-06-26T10:15:46;1111.97;;;999.90;;
2712;SDS011;1366;47.988;7.856;2023-06-26T10:18:15;1109.93;;;999.90;;
2712;SDS011;1366;47.988;7.856;2023-06-26T10:20:44;1106.03;;;999.90;;
2712;SDS011;1366;47.988;7.856;2023-06-26T10:23:11;1095.40;;;999.90;;
2712;SDS011;1366;47.988;7.856;2023-06-26T10:25:37;1068.53;;;999.90;;
2712;SDS011;1366;47.988;7.856;2023-06-26T10:28:06;1119.13;;;999.90;;
2712;SDS011;1366;47.988;7.856;2023-06-26T10:30:34;1117.53;;;999.90;;
2712;SDS011;1366;47.988;7.856;2023-06-26T10:33:02;1115.27;;;999.90;;
2712;SDS011;1366;47.988;7.856;2023-06-26T10:35:29;1108.60;;;999.90;;
2712;SDS011;1366;47.988;7.856;2023-06-26T10:38:00;1104.07;;;999.90;;
2712;SDS011;1366;47.988;7.856;2023-06-26T10:40:27;1106.07;;;999.90;;
2712;SDS011;1366;47.988;7.856;2023-06-26T10:43:06;1099.47;;;999.90;;
2712;SDS011;1366;47.988;7.856;2023-06-26T10:45:33;1100.67;;;999.90;;
2712;SDS011;1366;47.988;7.856;2023-06-26T10:48:00;1056.07;;;999.90;;
2712;SDS011;1366;47.988;7.856;2023-06-26T10:50:32;1092.77;;;999.90;;
2712;SDS011;1366;47.988;7.856;2023-06-26T10:53:09;1106.57;;;999.90;;
2712;SDS011;1366;47.988;7.856;2023-06-26T10:55:36;1112.63;;;999.90;;
2712;SDS011;1366;47.988;7.856;2023-06-26T10:58:02;1110.40;;;999.90;;
2712;SDS011;1366;47.988;7.856;2023-06-26T11:00:28;1104.93;;;999.90;;
2712;SDS011;1366;47.988;7.856;2023-06-26T11:02:54;1099.63;;;999.90;;
2712;SDS011;1366;47.988;7.856;2023-06-26T11:05:24;1087.53;;;999.90;;
2712;SDS011;1366;47.988;7.856;2023-06-26T11:08:07;1096.87;;;999.90;;
2712;SDS011;1366;47.988;7.856;2023-06-26T11:10:50;1083.20;;;999.90;;
2712;SDS011;1366;47.988;7.856;2023-06-26T11:13:16;1094.57;;;999.90;;
2712;SDS011;1366;47.988;7.856;2023-06-26T11:15:43;1095.87;;;999.90;;
2712;SDS011;1366;47.988;7.856;2023-06-26T11:18:09;1094.97;;;999.90;;
2712;SDS011;1366;47.988;7.856;2023-06-26T11:20:36;1074.20;;;999.90;;
2712;SDS011;1366;47.988;7.856;2023-06-26T11:23:03;1087.73;;;999.90;;
2712;SDS011;1366;47.988;7.856;2023-06-26T11:25:37;1106.63;;;999.90;;
2712;SDS011;1366;47.988;7.856;2023-06-26T11:28:04;1158.32;;;999.90;;
2712;SDS011;1366;47.988;7.856;2023-06-26T11:30:31;1144.00;;;999.90;;
2712;SDS011;1366;47.988;7.856;2023-06-26T11:33:06;1140.27;;;999.90;;
2712;SDS011;1366;47.988;7.856;2023-06-26T11:35:32;1141.80;;;999.90;;
2712;SDS011;1366;47.988;7.856;2023-06-26T11:37:59;1148.77;;;999.90;;
2712;SDS011;1366;47.988;7.856;2023-06-26T11:40:29;1151.63;;;999.90;;
2712;SDS011;1366;47.988;7.856;2023-06-26T11:42:59;1154.63;;;999.90;;
2712;SDS011;1366;47.988;7.856;2023-06-26T11:45:29;1145.83;;;999.90;;
2712;SDS011;1366;47.988;7.856;2023-06-26T11:47:55;1138.70;;;999.90;;
2712;SDS011;1366;47.988;7.856;2023-06-26T11:50:22;1127.50;;;999.90;;
2712;SDS011;1366;47.988;7.856;2023-06-26T11:55:23;1142.27;;;999.90;;
2712;SDS011;1366;47.988;7.856;2023-06-26T11:57:50;1137.10;;;999.90;;
2712;SDS011;1366;47.988;7.856;2023-06-26T12:00:16;1116.10;;;999.90;;
2712;SDS011;1366;47.988;7.856;2023-06-26T12:02:44;1124.73;;;999.90;;
2712;SDS011;1366;47.988;7.856;2023-06-26T12:05:11;1116.97;;;999.90;;
2712;SDS011;1366;47.988;7.856;2023-06-26T12:07:39;1122.63;;;999.90;;
2712;SDS011;1366;47.988;7.856;2023-06-26T12:10:06;1121.93;;;999.90;;
2712;SDS011;1366;47.988;7.856;2023-06-26T12:12:32;1117.10;;;999.90;;
2712;SDS011;1366;47.988;7.856;2023-06-26T12:14:59;1118.07;;;999.90;;
2712;SDS011;1366;47.988;7.856;2023-06-26T12:17:26;1115.30;;;999.90;;
2712;SDS011;1366;47.988;7.856;2023-06-26T12:19:52;1138.97;;;999.90;;
2712;SDS011;1366;47.988;7.856;2023-06-26T12:22:18;1111.33;;;999.90;;
2712;SDS011;1366;47.988;7.856;2023-06-26T12:24:44;1106.40;;;999.90;;
2712;SDS011;1366;47.988;7.856;2023-06-26T12:27:15;1108.90;;;999.90;;
2712;SDS011;1366;47.988;7.856;2023-06-26T12:29:45;1107.73;;;999.90;;
2712;SDS011;1366;47.988;7.856;2023-06-26T12:32:12;1109.53;;;999.90;;
2712;SDS011;1366;47.988;7.856;2023-06-26T12:34:39;1181.95;;;999.90;;
2712;SDS011;1366;47.988;7.856;2023-06-26T12:37:10;1128.53;;;999.90;;
2712;SDS011;1366;47.988;7.856;2023-06-26T12:42:27;1115.83;;;999.90;;
2712;SDS011;1366;47.988;7.856;2023-06-26T12:44:54;1120.03;;;999.90;;
2712;SDS011;1366;47.988;7.856;2023-06-26T12:47:24;1192.35;;;999.90;;
2712;SDS011;1366;47.988;7.856;2023-06-26T12:49:50;1134.47;;;999.90;;
2712;SDS011;1366;47.988;7.856;2023-06-26T12:52:17;1120.73;;;999.90;;
2712;SDS011;1366;47.988;7.856;2023-06-26T12:54:44;1123.07;;;999.90;;
2712;SDS011;1366;47.988;7.856;2023-06-26T12:57:12;1107.83;;;999.90;;
2712;SDS011;1366;47.988;7.856;2023-06-26T12:59:41;1117.27;;;999.90;;
2712;SDS011;1366;47.988;7.856;2023-06-26T13:02:07;1107.10;;;999.90;;
2712;SDS011;1366;47.988;7.856;2023-06-26T13:04:34;1106.83;;;999.90;;
2712;SDS011;1366;47.988;7.856;2023-06-26T13:07:00;1108.43;;;999.90;;
2712;SDS011;1366;47.988;7.856;2023-06-26T13:09:32;1102.03;;;999.90;;
2712;SDS011;1366;47.988;7.856;2023-06-26T13:11:58;1101.83;;;999.90;;
2712;SDS011;1366;47.988;7.856;2023-06-26T13:14:24;1102.50;;;999.90;;
2712;SDS011;1366;47.988;7.856;2023-06-26T13:16:51;1109.73;;;999.90;;
2712;SDS011;1366;47.988;7.856;2023-06-26T13:19:17;1106.67;;;999.90;;
2712;SDS011;1366;47.988;7.856;2023-06-26T13:21:43;1108.13;;;999.90;;
2712;SDS011;1366;47.988;7.856;2023-06-26T13:24:09;1125.90;;;999.90;;
2712;SDS011;1366;47.988;7.856;2023-06-26T13:26:35;1126.33;;;999.90;;
2712;SDS011;1366;47.988;7.856;2023-06-26T13:29:02;1120.17;;;999.90;;
2712;SDS011;1366;47.988;7.856;2023-06-26T13:31:28;1129.37;;;999.90;;
2712;SDS011;1366;47.988;7.856;2023-06-26T13:33:57;1125.67;;;999.90;;
2712;SDS011;1366;47.988;7.856;2023-06-26T13:36:23;1117.17;;;999.90;;
2712;SDS011;1366;47.988;7.856;2023-06-26T13:38:50;1132.43;;;999.90;;
2712;SDS011;1366;47.988;7.856;2023-06-26T13:41:21;1125.90;;;999.90;;
2712;SDS011;1366;47.988;7.856;2023-06-26T13:43:47;1120.20;;;999.90;;
2712;SDS011;1366;47.988;7.856;2023-06-26T13:46:13;1126.23;;;999.90;;
2712;SDS011;1366;47.988;7.856;2023-06-26T13:48:39;1125.67;;;999.90;;
2712;SDS011;1366;47.988;7.856;2023-06-26T13:51:05;1125.07;;;999.90;;
2712;SDS011;1366;47.988;7.856;2023-06-26T13:53:31;1129.77;;;999.90;;
2712;SDS011;1366;47.988;7.856;2023-06-26T13:55:57;1122.07;;;999.90;;
2712;SDS011;1366;47.988;7.856;2023-06-26T13:58:23;1123.60;;;999.90;;
2712;SDS011;1366;47.988;7.856;2023-06-26T14:00:52;1123.20;;;999.90;;
2712;SDS011;1366;47.988;7.856;2023-06-26T14:03:18;1130.93;;;999.90;;
2712;SDS011;1366;47.988;7.856;2023-06-26T14:05:44;1130.00;;;999.90;;
2712;SDS011;1366;47.988;7.856;2023-06-26T14:08:10;1102.13;;;999.90;;
2712;SDS011;1366;47.988;7.856;2023-06-26T14:10:36;1120.90;;;999.90;;
2712;SDS011;1366;47.988;7.856;2023-06-26T14:13:03;1110.37;;;999.90;;
2712;SDS011;1366;47.988;7.856;2023-06-26T14:15:29;1123.33;;;999.90;;
2712;SDS011;1366;47.988;7.856;2023-06-26T14:17:55;1107.60;;;999.90;;
2712;SDS011;1366;47.988;7.856;2023-06-26T14:20:22;1130.57;;;999.90;;
2712;SDS011;1366;47.988;7.856;2023-06-26T14:22:49;1121.80;;;999.90;;
2712;SDS011;1366;47.988;7.856;2023-06-26T14:25:16;1124.67;;;999.90;;
2712;SDS011;1366;47.988;7.856;2023-06-26T14:27:42;1119.53;;;999.90;;
2712;SDS011;1366;47.988;7.856;2023-06-26T14:30:09;1117.37;;;999.90;;
2712;SDS011;1366;47.988;7.856;2023-06-26T14:32:35;1107.90;;;999.90;;
2712;SDS011;1366;47.988;7.856;2023-06-26T14:35:01;1127.87;;;999.90;;
2712;SDS011;1366;47.988;7.856;2023-06-26T14:37:29;1127.77;;;999.90;;
2712;SDS011;1366;47.988;7.856;2023-06-26T14:39:56;1132.97;;;999.90;;
2712;SDS011;1366;47.988;7.856;2023-06-26T14:42:23;1154.10;;;999.90;;
2712;SDS011;1366;47.988;7.856;2023-06-26T14:44:49;1150.23;;;999.90;;
2712;SDS011;1366;47.988;7.856;2023-06-26T14:47:16;1149.67;;;999.90;;
2712;SDS011;1366;47.988;7.856;2023-06-26T14:49:42;1155.43;;;999.90;;
2712;SDS011;1366;47.988;7.856;2023-06-26T14:52:08;1155.63;;;999.90;;
2712;SDS011;1366;47.988;7.856;2023-06-26T14:54:34;1160.47;;;999.90;;
2712;SDS011;1366;47.988;7.856;2023-06-26T14:57:04;1142.63;;;999.90;;
2712;SDS011;1366;47.988;7.856;2023-06-26T14:59:31;1131.67;;;999.90;;
2712;SDS011;1366;47.988;7.856;2023-06-26T15:01:57;1142.60;;;999.90;;
2712;SDS011;1366;47.988;7.856;2023-06-26T15:04:23;1138.23;;;999.90;;